createdAt,value
2022-12-05T00:01:46.388Z,1.10
2022-12-05T00:04:20.533Z,1.10
2022-12-05T00:07:36.611Z,1.10
2022-12-05T00:11:07.467Z,1.20
2022-12-05T00:18:01.325Z,1.00
2022-12-05T00:20:59.603Z,1.10
2022-12-05T00:23:56.154Z,1.10
2022-12-05T00:26:24.276Z,1.10
2022-12-05T00:29:00.361Z,1.10
2022-12-05T00:31:33.848Z,1.10
2022-12-05T00:34:13.060Z,1.10
2022-12-05T00:36:40.415Z,1.20
2022-12-05T00:39:13.503Z,1.20
2022-12-05T00:41:53.211Z,1.20
2022-12-05T00:44:31.541Z,1.20
2022-12-05T00:47:09.566Z,1.10
2022-12-05T00:49:50.211Z,1.10
2022-12-05T00:52:17.585Z,1.10
2022-12-05T00:54:45.084Z,1.20
2022-12-05T00:57:15.892Z,1.00
2022-12-05T00:59:46.159Z,1.00
2022-12-05T01:02:24.201Z,1.00
2022-12-05T01:05:34.327Z,1.00
2022-12-05T01:11:45.422Z,1.10
2022-12-05T01:14:31.523Z,1.10
2022-12-05T01:19:56.738Z,1.20
2022-12-05T01:22:34.569Z,1.10
2022-12-05T01:25:11.074Z,1.00
2022-12-05T01:30:32.205Z,1.00
2022-12-05T01:33:07.480Z,1.00
2022-12-05T01:35:40.831Z,1.00
2022-12-05T01:38:42.670Z,1.00
2022-12-05T01:49:53.291Z,1.00
2022-12-05T01:52:36.537Z,1.00
2022-12-05T01:55:09.016Z,1.00
2022-12-05T01:57:37.095Z,1.00
2022-12-05T02:00:22.751Z,0.90
2022-12-05T02:03:00.653Z,0.90
2022-12-05T02:05:34.712Z,1.00
2022-12-05T02:08:37.597Z,1.00
2022-12-05T02:11:16.688Z,0.90
2022-12-05T02:18:04.895Z,1.00
2022-12-05T02:21:48.500Z,1.00
2022-12-05T02:25:15.665Z,0.90
2022-12-05T02:28:26.173Z,0.90
2022-12-05T02:31:01.662Z,0.90
2022-12-05T02:34:04.185Z,1.00
2022-12-05T02:36:46.750Z,1.00
2022-12-05T02:40:14.945Z,1.00
2022-12-05T02:43:08.402Z,1.00
2022-12-05T02:45:37.241Z,1.00
2022-12-05T02:48:23.694Z,1.00
2022-12-05T02:51:16.186Z,1.00
2022-12-05T02:54:26.009Z,1.00
2022-12-05T02:57:25.451Z,1.10
2022-12-05T03:03:27.170Z,0.90
2022-12-05T03:06:14.820Z,0.90
2022-12-05T03:09:05.767Z,0.80
2022-12-05T03:11:41.578Z,0.80
2022-12-05T03:14:27.219Z,0.80
2022-12-05T03:17:52.825Z,0.70
2022-12-05T03:21:29.595Z,0.70
2022-12-05T03:24:10.155Z,0.70
2022-12-05T03:27:10.877Z,0.80
2022-12-05T03:33:33.468Z,0.80
2022-12-05T03:40:13.914Z,0.80
2022-12-05T03:43:02.090Z,0.90
2022-12-05T03:46:16.705Z,0.80
2022-12-05T03:49:12.195Z,0.80
2022-12-05T03:52:03.539Z,0.80
2022-12-05T03:54:46.151Z,0.70
2022-12-05T03:57:25.896Z,0.70
2022-12-05T04:00:25.246Z,0.70
2022-12-05T04:03:22.339Z,0.70
2022-12-05T04:06:00.028Z,0.80
2022-12-05T04:08:49.077Z,0.80
2022-12-05T04:11:53.997Z,0.80
2022-12-05T04:14:54.622Z,0.80
2022-12-05T04:17:38.353Z,0.80
2022-12-05T04:20:47.959Z,0.80
2022-12-05T04:27:31.588Z,0.80
2022-12-05T04:30:11.538Z,0.70
2022-12-05T04:33:02.852Z,0.80
2022-12-05T04:35:39.220Z,0.80
2022-12-05T04:38:49.760Z,0.80
2022-12-05T04:41:26.637Z,0.90
2022-12-05T04:43:58.458Z,0.90
2022-12-05T04:47:01.803Z,0.80
2022-12-05T04:49:32.595Z,0.70
2022-12-05T04:52:10.942Z,0.80
2022-12-05T04:54:46.352Z,0.80
2022-12-05T04:57:39.212Z,0.90
2022-12-05T05:00:17.415Z,0.90
2022-12-05T05:03:04.186Z,1.00
2022-12-05T05:05:33.185Z,1.00
2022-12-05T05:08:01.057Z,1.00
2022-12-05T05:11:04.379Z,1.00
2022-12-05T05:13:31.951Z,1.00
2022-12-05T05:15:59.672Z,1.00
2022-12-05T05:18:30.144Z,0.80
2022-12-05T05:20:57.736Z,0.80
2022-12-05T05:23:25.091Z,0.80
2022-12-05T05:28:48.269Z,0.80
2022-12-05T05:31:16.807Z,0.90
2022-12-05T05:34:09.815Z,0.90
2022-12-05T05:36:38.676Z,0.90
2022-12-05T05:39:10.360Z,1.00
2022-12-05T05:41:51.326Z,1.10
2022-12-05T05:44:18.959Z,1.10
2022-12-05T05:46:46.696Z,1.10
2022-12-05T05:49:13.994Z,0.90
2022-12-05T05:51:41.327Z,0.90
2022-12-05T05:54:14.120Z,0.80
2022-12-05T05:56:48.898Z,0.80
2022-12-05T05:59:16.228Z,0.90
2022-12-05T06:01:47.270Z,0.90
2022-12-05T06:04:14.492Z,0.90
2022-12-05T06:06:51.550Z,0.90
2022-12-05T06:09:25.697Z,0.90
2022-12-05T06:11:59.051Z,1.00
2022-12-05T06:14:26.987Z,1.00
2022-12-05T06:17:43.058Z,1.00
2022-12-05T06:20:17.022Z,1.00
2022-12-05T06:23:22.625Z,1.00
2022-12-05T06:25:54.013Z,0.90
2022-12-05T06:28:45.241Z,0.90
2022-12-05T06:31:32.132Z,0.90
2022-12-05T06:34:10.621Z,0.90
2022-12-05T06:36:40.994Z,1.00
2022-12-05T06:39:21.969Z,0.90
2022-12-05T06:41:49.934Z,1.00
2022-12-05T06:44:18.285Z,1.00
2022-12-05T06:46:49.420Z,1.00
2022-12-05T06:49:34.759Z,0.90
2022-12-05T06:52:05.986Z,0.90
2022-12-05T06:54:33.336Z,1.00
2022-12-05T06:57:27.007Z,1.00
2022-12-05T07:00:19.960Z,1.00
2022-12-05T07:04:01.055Z,1.10
2022-12-05T07:06:28.754Z,1.00
2022-12-05T07:09:02.611Z,1.00
2022-12-05T07:11:30.141Z,1.00
2022-12-05T07:14:50.484Z,1.10
2022-12-05T07:18:05.872Z,1.00
2022-12-05T07:24:44.221Z,1.00
2022-12-05T07:27:28.270Z,1.00
2022-12-05T07:30:52.373Z,1.00
2022-12-05T07:33:54.991Z,1.10
2022-12-05T07:40:50.777Z,1.10
2022-12-05T07:43:53.728Z,1.10
2022-12-05T07:46:25.075Z,1.10
2022-12-05T07:49:27.371Z,1.10
2022-12-05T07:52:24.368Z,1.10
2022-12-05T07:55:15.325Z,1.10
2022-12-05T07:57:57.658Z,1.10
2022-12-05T08:00:33.821Z,1.10
2022-12-05T08:03:05.213Z,1.20
2022-12-05T08:05:39.081Z,1.10
2022-12-05T08:08:30.709Z,1.30
2022-12-05T08:11:10.900Z,1.30
2022-12-05T08:13:42.456Z,1.30
2022-12-05T08:16:39.062Z,1.20
2022-12-05T08:19:15.796Z,1.20
2022-12-05T08:21:48.663Z,1.10
2022-12-05T08:24:32.431Z,1.10
2022-12-05T08:27:04.282Z,1.10
2022-12-05T08:29:35.392Z,1.10
2022-12-05T08:32:02.614Z,1.20
2022-12-05T08:34:29.808Z,1.30
2022-12-05T08:37:08.696Z,1.30
2022-12-05T08:40:28.288Z,1.20
2022-12-05T08:42:59.673Z,1.30
2022-12-05T08:45:29.750Z,1.30
2022-12-05T08:47:56.927Z,1.30
2022-12-05T08:50:24.958Z,1.40
2022-12-05T08:53:15.923Z,1.50
2022-12-05T08:55:43.335Z,1.50
2022-12-05T08:58:10.720Z,1.60
2022-12-05T09:00:39.565Z,1.50
2022-12-05T09:03:18.906Z,1.60
2022-12-05T09:05:46.370Z,1.60
2022-12-05T09:08:16.306Z,1.60
2022-12-05T09:10:46.953Z,1.70
2022-12-05T09:13:20.051Z,1.60
2022-12-05T09:15:51.125Z,1.50
2022-12-05T09:18:29.217Z,1.60
2022-12-05T09:20:56.968Z,1.60
2022-12-05T09:23:28.002Z,1.50
2022-12-05T09:26:01.800Z,1.50
2022-12-05T09:28:30.364Z,1.50
2022-12-05T09:31:03.830Z,1.40
2022-12-05T09:33:32.561Z,1.50
2022-12-05T09:36:02.258Z,1.60
2022-12-05T09:38:29.222Z,1.70
2022-12-05T09:41:11.041Z,1.70
2022-12-05T09:43:47.438Z,1.60
2022-12-05T09:46:41.807Z,1.60
2022-12-05T09:49:11.798Z,1.60
2022-12-05T09:51:42.890Z,1.60
2022-12-05T09:54:12.821Z,1.60
2022-12-05T09:56:43.246Z,1.70
2022-12-05T09:59:20.853Z,1.60
2022-12-05T10:02:05.507Z,1.70
2022-12-05T10:04:35.700Z,1.70
2022-12-05T10:07:24.994Z,1.80
2022-12-05T10:10:01.617Z,1.80
2022-12-05T10:13:00.092Z,1.80
2022-12-05T10:15:36.675Z,1.80
2022-12-05T10:18:11.561Z,1.80
2022-12-05T10:20:47.930Z,1.80
2022-12-05T10:23:55.977Z,1.80
2022-12-05T10:26:17.342Z,1.70
2022-12-05T10:28:56.215Z,1.70
2022-12-05T10:31:28.160Z,1.80
2022-12-05T10:34:18.341Z,1.80
2022-12-05T10:36:58.999Z,1.70
2022-12-05T10:39:26.157Z,1.70
2022-12-05T10:41:53.356Z,1.80
2022-12-05T10:44:20.363Z,1.70
2022-12-05T10:46:48.303Z,1.80
2022-12-05T10:49:18.479Z,1.80
2022-12-05T10:51:46.314Z,1.90
2022-12-05T10:54:24.820Z,2.00
2022-12-05T10:56:53.534Z,2.00
2022-12-05T10:59:26.106Z,1.80
2022-12-05T11:02:00.238Z,2.00
2022-12-05T11:04:44.375Z,2.00
2022-12-05T11:07:31.008Z,1.90
2022-12-05T11:10:00.229Z,1.90
2022-12-05T11:12:38.282Z,1.90
2022-12-05T11:15:22.605Z,1.90
2022-12-05T11:17:51.485Z,2.00
2022-12-05T11:20:22.286Z,1.90
2022-12-05T11:22:55.230Z,1.90
2022-12-05T11:25:32.506Z,2.00
2022-12-05T11:28:17.818Z,2.00
2022-12-05T11:31:04.900Z,2.00
2022-12-05T11:33:37.502Z,1.90
2022-12-05T11:36:29.410Z,1.90
2022-12-05T11:38:58.629Z,1.90
2022-12-05T11:41:47.358Z,1.90
2022-12-05T11:44:29.621Z,1.80
2022-12-05T11:47:06.362Z,1.80
2022-12-05T11:49:46.397Z,1.70
2022-12-05T11:52:40.707Z,1.80
2022-12-05T11:55:15.113Z,1.90
2022-12-05T11:57:52.755Z,1.90
2022-12-05T12:00:50.098Z,2.00
2022-12-05T12:03:33.063Z,1.90
2022-12-05T12:06:38.697Z,1.80
2022-12-05T12:09:08.460Z,1.80
2022-12-05T12:11:48.623Z,1.80
2022-12-05T12:14:44.241Z,1.80
2022-12-05T12:17:43.875Z,1.80
2022-12-05T12:20:19.921Z,1.90
2022-12-05T12:23:06.972Z,1.90
2022-12-05T12:25:55.582Z,1.90
2022-12-05T12:28:37.795Z,1.80
2022-12-05T12:31:18.395Z,2.00
2022-12-05T12:33:48.825Z,2.10
2022-12-05T12:36:35.661Z,2.10
2022-12-05T12:39:15.040Z,2.00
2022-12-05T12:41:48.340Z,2.00
2022-12-05T12:44:46.721Z,2.20
2022-12-05T12:47:41.903Z,2.10
2022-12-05T12:50:25.124Z,2.10
2022-12-05T12:53:09.376Z,2.10
2022-12-05T12:56:02.064Z,2.20
2022-12-05T12:59:00.672Z,2.10
2022-12-05T13:02:11.560Z,2.20
2022-12-05T13:04:54.931Z,2.20
2022-12-05T13:07:38.611Z,2.30
2022-12-05T13:10:17.674Z,2.20
2022-12-05T13:12:48.781Z,2.20
2022-12-05T13:15:22.811Z,2.20
2022-12-05T13:17:51.573Z,2.20
2022-12-05T13:20:30.468Z,2.10
2022-12-05T13:23:08.121Z,2.20
2022-12-05T13:25:46.813Z,2.20
2022-12-05T13:28:31.686Z,2.10
2022-12-05T13:31:05.962Z,2.10
2022-12-05T13:33:46.364Z,2.10
2022-12-05T13:36:34.111Z,2.10
2022-12-05T13:39:23.349Z,2.00
2022-12-05T13:42:15.175Z,2.00
2022-12-05T13:44:42.690Z,2.00
2022-12-05T13:47:51.595Z,2.10
2022-12-05T13:50:29.802Z,2.00
2022-12-05T13:53:05.115Z,2.10
2022-12-05T13:55:57.047Z,2.20
2022-12-05T13:58:33.229Z,2.20
2022-12-05T14:01:56.465Z,2.10
2022-12-05T14:04:56.820Z,2.10
2022-12-05T14:12:11.552Z,2.10
2022-12-05T14:26:08.930Z,2.10
2022-12-05T14:29:28.619Z,2.10
2022-12-05T14:32:07.877Z,2.10
2022-12-05T14:43:46.260Z,2.30
2022-12-05T14:46:29.009Z,2.20
2022-12-05T14:48:56.734Z,2.20
2022-12-05T14:52:04.394Z,2.20
2022-12-05T14:54:27.903Z,2.20
2022-12-05T14:57:11.640Z,2.20
2022-12-05T15:00:01.397Z,2.20
2022-12-05T15:03:23.943Z,2.20
2022-12-05T15:06:24.004Z,2.10
2022-12-05T15:09:28.738Z,2.20
2022-12-05T15:12:24.144Z,2.10
2022-12-05T15:15:40.886Z,2.10
2022-12-05T15:18:47.434Z,2.20
2022-12-05T15:21:36.184Z,2.20
2022-12-05T15:27:16.862Z,2.10
2022-12-05T15:29:44.527Z,2.00
2022-12-05T15:32:14.659Z,2.00
2022-12-05T15:34:54.924Z,2.00
2022-12-05T15:37:57.515Z,2.10
2022-12-05T15:40:26.255Z,2.10
2022-12-05T15:42:57.707Z,2.00
2022-12-05T15:45:29.603Z,2.00
2022-12-05T15:48:22.519Z,2.00
2022-12-05T15:50:53.212Z,2.00
2022-12-05T15:53:36.862Z,2.00
2022-12-05T15:56:09.713Z,1.90
2022-12-05T15:58:49.605Z,1.90
2022-12-05T16:01:27.927Z,2.00
2022-12-05T16:04:03.870Z,2.00
2022-12-05T16:06:42.939Z,2.10
2022-12-05T16:09:17.435Z,2.10
2022-12-05T16:12:02.737Z,2.10
2022-12-05T16:14:58.786Z,2.20
2022-12-05T16:17:22.047Z,2.10
2022-12-05T16:19:49.286Z,2.20
2022-12-05T16:22:25.911Z,2.20
2022-12-05T16:24:59.782Z,2.20
2022-12-05T16:27:32.269Z,2.10
2022-12-05T16:30:38.405Z,2.10
2022-12-05T16:33:15.612Z,2.10
2022-12-05T16:36:11.772Z,2.20
2022-12-05T16:38:45.139Z,2.10
2022-12-05T16:41:26.828Z,2.10
2022-12-05T16:43:54.280Z,2.10
2022-12-05T16:46:45.162Z,2.10
2022-12-05T16:49:38.805Z,2.20
2022-12-05T16:52:10.043Z,2.10
2022-12-05T16:54:37.190Z,2.00
2022-12-05T16:57:05.077Z,2.10
2022-12-05T16:59:47.291Z,2.10
2022-12-05T17:02:26.322Z,2.10
2022-12-05T17:04:56.462Z,2.10
2022-12-05T17:07:51.809Z,2.00
2022-12-05T17:10:19.887Z,2.10
2022-12-05T17:12:49.953Z,2.10
2022-12-05T17:15:19.391Z,2.30
2022-12-05T17:17:47.406Z,2.30
2022-12-05T17:20:23.752Z,2.30
2022-12-05T17:22:53.957Z,2.30
2022-12-05T17:25:33.239Z,2.30
2022-12-05T17:28:00.225Z,2.40
2022-12-05T17:30:30.811Z,2.30
2022-12-05T17:32:58.321Z,2.30
2022-12-05T17:38:11.061Z,2.30
2022-12-05T17:40:50.389Z,2.30
2022-12-05T17:43:23.062Z,2.20
2022-12-05T17:45:56.028Z,2.30
2022-12-05T17:48:33.969Z,2.20
2022-12-05T17:51:15.348Z,2.20
2022-12-05T17:53:45.876Z,2.20
2022-12-05T17:56:21.861Z,2.30
2022-12-05T17:58:52.749Z,2.30
2022-12-05T18:02:10.893Z,2.40
2022-12-05T18:04:45.401Z,2.30
2022-12-05T18:10:15.698Z,2.30
2022-12-05T18:12:43.552Z,2.40
2022-12-05T18:15:12.092Z,2.40
2022-12-05T18:17:39.588Z,2.30
2022-12-05T18:20:16.576Z,2.30
2022-12-05T18:22:53.547Z,2.30
2022-12-05T18:25:22.658Z,2.30
2022-12-05T18:28:00.822Z,2.30
2022-12-05T18:31:21.106Z,2.40
2022-12-05T18:34:38.880Z,2.40
2022-12-05T18:37:06.687Z,2.40
2022-12-05T18:39:52.148Z,2.40
2022-12-05T18:43:13.057Z,2.40
2022-12-05T18:45:58.592Z,2.40
2022-12-05T18:49:03.650Z,2.40
2022-12-05T18:51:36.676Z,2.40
2022-12-05T18:54:38.812Z,2.40
2022-12-05T18:57:05.961Z,2.40
2022-12-05T18:59:53.807Z,2.40
2022-12-05T19:02:26.762Z,2.40
2022-12-05T19:42:09.965Z,2.40
2022-12-05T19:45:24.960Z,2.40
2022-12-05T19:48:06.867Z,2.50
2022-12-05T19:51:15.280Z,2.50
2022-12-05T19:54:11.927Z,2.40
2022-12-05T19:57:35.576Z,2.40
2022-12-05T20:00:20.563Z,2.40
2022-12-05T20:03:11.872Z,2.40
2022-12-05T20:05:42.624Z,2.50
2022-12-05T20:08:33.223Z,2.50
2022-12-05T20:11:26.745Z,2.50
2022-12-05T20:18:23.164Z,2.50
2022-12-05T20:22:13.045Z,2.50
2022-12-05T20:52:10.320Z,2.50
2022-12-05T20:55:18.429Z,2.50
2022-12-05T20:58:05.314Z,2.50
2022-12-05T21:41:50.513Z,2.70
2022-12-05T21:44:59.252Z,2.70
2022-12-05T21:47:44.720Z,2.60
2022-12-05T22:02:20.402Z,2.70
2022-12-05T22:05:10.848Z,2.70
2022-12-05T22:14:15.829Z,2.60
2022-12-05T22:20:37.079Z,2.60
2022-12-05T22:23:45.792Z,2.60
2022-12-05T22:29:18.290Z,2.60
2022-12-05T22:31:51.320Z,2.60
2022-12-05T22:34:35.429Z,2.50
2022-12-05T22:37:08.825Z,2.50
2022-12-05T22:39:48.064Z,2.50
2022-12-05T22:42:15.309Z,2.50
2022-12-05T22:44:46.048Z,2.60
2022-12-05T22:47:13.404Z,2.60
2022-12-05T22:50:02.552Z,2.60
2022-12-05T22:52:54.502Z,2.60
2022-12-05T22:55:33.723Z,2.60
2022-12-05T22:58:05.393Z,2.60
2022-12-05T23:00:36.232Z,2.60
2022-12-05T23:03:13.240Z,2.60
2022-12-05T23:06:26.039Z,2.60
2022-12-05T23:09:46.751Z,2.50
2022-12-05T23:14:02.628Z,2.60
2022-12-05T23:16:19.291Z,2.60
2022-12-05T23:19:02.393Z,2.50
2022-12-05T23:24:45.709Z,2.50
2022-12-05T23:27:33.258Z,2.50
2022-12-05T23:30:30.704Z,2.50
2022-12-05T23:33:28.180Z,2.60
2022-12-05T23:36:23.803Z,2.60
2022-12-05T23:47:35.128Z,2.40
2022-12-05T23:51:03.079Z,2.40
2022-12-05T23:59:58.089Z,2.50
